sensor_id;sensor_type;location;lat;lon;timestamp;temperature;humidity
23719;DHT22;43322;52.230;5.702;2022-08-01T00:00:18;19.00;99.90
23719;DHT22;43322;52.230;5.702;2022-08-01T00:02:45;19.10;99.90
23719;DHT22;43322;52.230;5.702;2022-08-01T00:05:11;18.70;99.90
23719;DHT22;43322;52.230;5.702;2022-08-01T00:07:40;18.80;99.90
23719;DHT22;43322;52.230;5.702;2022-08-01T00:10:11;18.70;99.90
23719;DHT22;43322;52.230;5.702;2022-08-01T00:12:39;18.70;99.90
23719;DHT22;43322;52.230;5.702;2022-08-01T00:15:08;18.70;99.90
23719;DHT22;43322;52.230;5.702;2022-08-01T00:17:36;18.70;99.90
23719;DHT22;43322;52.230;5.702;2022-08-01T00:20:05;18.80;99.90
23719;DHT22;43322;52.230;5.702;2022-08-01T00:22:33;18.80;99.90
23719;DHT22;43322;52.230;5.702;2022-08-01T00:25:02;18.90;99.90
23719;DHT22;43322;52.230;5.702;2022-08-01T00:27:29;18.80;99.90
23719;DHT22;43322;52.230;5.702;2022-08-01T00:29:57;18.80;99.90
23719;DHT22;43322;52.230;5.702;2022-08-01T00:32:24;18.70;99.90
23719;DHT22;43322;52.230;5.702;2022-08-01T00:34:51;18.70;99.90
23719;DHT22;43322;52.230;5.702;2022-08-01T00:37:18;18.70;99.90
23719;DHT22;43322;52.230;5.702;2022-08-01T00:39:44;18.70;99.90
23719;DHT22;43322;52.230;5.702;2022-08-01T00:42:13;18.90;99.90
23719;DHT22;43322;52.230;5.702;2022-08-01T00:44:40;18.70;99.90
23719;DHT22;43322;52.230;5.702;2022-08-01T00:47:07;18.50;99.90
23719;DHT22;43322;52.230;5.702;2022-08-01T00:49:34;18.60;99.90
23719;DHT22;43322;52.230;5.702;2022-08-01T00:52:03;18.60;99.90
23719;DHT22;43322;52.230;5.702;2022-08-01T00:54:30;18.70;99.90
23719;DHT22;43322;52.230;5.702;2022-08-01T00:56:58;18.90;99.90
23719;DHT22;43322;52.230;5.702;2022-08-01T00:59:26;18.70;99.90
23719;DHT22;43322;52.230;5.702;2022-08-01T01:01:53;19.00;99.90
23719;DHT22;43322;52.230;5.702;2022-08-01T01:04:20;18.70;99.90
23719;DHT22;43322;52.230;5.702;2022-08-01T01:06:53;18.80;99.90
23719;DHT22;43322;52.230;5.702;2022-08-01T01:09:31;18.70;99.90
23719;DHT22;43322;52.230;5.702;2022-08-01T01:12:05;18.80;99.90
23719;DHT22;43322;52.230;5.702;2022-08-01T01:14:41;18.70;99.90
23719;DHT22;43322;52.230;5.702;2022-08-01T01:17:12;18.70;99.90
23719;DHT22;43322;52.230;5.702;2022-08-01T01:19:45;18.60;99.90
23719;DHT22;43322;52.230;5.702;2022-08-01T01:22:27;18.60;99.90
23719;DHT22;43322;52.230;5.702;2022-08-01T01:25:06;18.60;99.90
23719;DHT22;43322;52.230;5.702;2022-08-01T01:27:42;18.80;99.90
23719;DHT22;43322;52.230;5.702;2022-08-01T01:30:13;18.50;99.90
23719;DHT22;43322;52.230;5.702;2022-08-01T01:32:44;18.70;99.90
23719;DHT22;43322;52.230;5.702;2022-08-01T01:35:17;18.80;99.90
23719;DHT22;43322;52.230;5.702;2022-08-01T01:37:47;18.90;99.90
23719;DHT22;43322;52.230;5.702;2022-08-01T01:40:17;18.50;99.90
23719;DHT22;43322;52.230;5.702;2022-08-01T01:42:46;18.70;99.90
23719;DHT22;43322;52.230;5.702;2022-08-01T01:45:15;18.70;99.90
23719;DHT22;43322;52.230;5.702;2022-08-01T01:47:43;18.60;99.90
23719;DHT22;43322;52.230;5.702;2022-08-01T01:50:12;18.70;99.90
23719;DHT22;43322;52.230;5.702;2022-08-01T01:52:41;18.80;99.90
23719;DHT22;43322;52.230;5.702;2022-08-01T01:55:09;18.60;99.90
23719;DHT22;43322;52.230;5.702;2022-08-01T01:57:38;18.70;99.90
23719;DHT22;43322;52.230;5.702;2022-08-01T02:00:07;18.70;99.90
23719;DHT22;43322;52.230;5.702;2022-08-01T02:02:36;18.60;99.90
23719;DHT22;43322;52.230;5.702;2022-08-01T02:05:04;18.60;99.90
23719;DHT22;43322;52.230;5.702;2022-08-01T02:07:32;18.60;99.90
23719;DHT22;43322;52.230;5.702;2022-08-01T02:10:00;18.90;99.90
23719;DHT22;43322;52.230;5.702;2022-08-01T02:12:29;18.60;99.90
23719;DHT22;43322;52.230;5.702;2022-08-01T02:15:00;18.50;99.90
23719;DHT22;43322;52.230;5.702;2022-08-01T02:17:30;18.50;99.90
23719;DHT22;43322;52.230;5.702;2022-08-01T02:19:59;18.60;99.90
23719;DHT22;43322;52.230;5.702;2022-08-01T02:22:29;18.60;99.90
23719;DHT22;43322;52.230;5.702;2022-08-01T02:25:02;18.50;99.90
23719;DHT22;43322;52.230;5.702;2022-08-01T02:27:34;18.60;99.90
23719;DHT22;43322;52.230;5.702;2022-08-01T02:30:05;18.50;99.90
23719;DHT22;43322;52.230;5.702;2022-08-01T02:32:37;18.50;99.90
23719;DHT22;43322;52.230;5.702;2022-08-01T02:35:09;18.50;99.90
23719;DHT22;43322;52.230;5.702;2022-08-01T02:37:39;18.40;99.90
23719;DHT22;43322;52.230;5.702;2022-08-01T02:40:08;18.50;99.90
23719;DHT22;43322;52.230;5.702;2022-08-01T02:42:37;18.50;99.90
23719;DHT22;43322;52.230;5.702;2022-08-01T02:45:06;18.50;99.90
23719;DHT22;43322;52.230;5.702;2022-08-01T02:47:36;18.50;99.90
23719;DHT22;43322;52.230;5.702;2022-08-01T02:50:07;18.60;99.90
23719;DHT22;43322;52.230;5.702;2022-08-01T02:52:37;18.50;99.90
23719;DHT22;43322;52.230;5.702;2022-08-01T02:55:06;18.50;99.90
23719;DHT22;43322;52.230;5.702;2022-08-01T02:57:35;18.60;99.90
23719;DHT22;43322;52.230;5.702;2022-08-01T03:00:04;18.50;99.90
23719;DHT22;43322;52.230;5.702;2022-08-01T03:02:32;18.40;99.90
23719;DHT22;43322;52.230;5.702;2022-08-01T03:05:01;18.40;99.90
23719;DHT22;43322;52.230;5.702;2022-08-01T03:07:30;18.50;99.90
23719;DHT22;43322;52.230;5.702;2022-08-01T03:09:58;18.50;99.90
23719;DHT22;43322;52.230;5.702;2022-08-01T03:12:27;18.50;99.90
23719;DHT22;43322;52.230;5.702;2022-08-01T03:14:59;18.40;99.90
23719;DHT22;43322;52.230;5.702;2022-08-01T03:17:28;18.40;99.90
23719;DHT22;43322;52.230;5.702;2022-08-01T03:19:57;18.50;99.90
23719;DHT22;43322;52.230;5.702;2022-08-01T03:22:26;18.50;99.90
23719;DHT22;43322;52.230;5.702;2022-08-01T03:24:56;18.40;99.90
23719;DHT22;43322;52.230;5.702;2022-08-01T03:27:25;18.40;99.90
23719;DHT22;43322;52.230;5.702;2022-08-01T03:29:55;18.40;99.90
23719;DHT22;43322;52.230;5.702;2022-08-01T03:32:23;18.40;99.90
23719;DHT22;43322;52.230;5.702;2022-08-01T03:34:51;18.30;99.90
23719;DHT22;43322;52.230;5.702;2022-08-01T03:37:23;18.40;99.90
23719;DHT22;43322;52.230;5.702;2022-08-01T03:39:57;18.30;99.90
23719;DHT22;43322;52.230;5.702;2022-08-01T03:42:44;18.50;99.90
23719;DHT22;43322;52.230;5.702;2022-08-01T03:45:15;18.40;99.90
23719;DHT22;43322;52.230;5.702;2022-08-01T03:47:47;18.40;99.90
23719;DHT22;43322;52.230;5.702;2022-08-01T03:50:15;19.00;99.90
23719;DHT22;43322;52.230;5.702;2022-08-01T03:52:45;18.40;99.90
23719;DHT22;43322;52.230;5.702;2022-08-01T03:55:15;18.40;99.90
23719;DHT22;43322;52.230;5.702;2022-08-01T03:57:45;18.40;99.90
23719;DHT22;43322;52.230;5.702;2022-08-01T04:00:13;18.40;99.90
23719;DHT22;43322;52.230;5.702;2022-08-01T04:02:44;18.40;99.90
23719;DHT22;43322;52.230;5.702;2022-08-01T04:05:11;18.40;99.90
23719;DHT22;43322;52.230;5.702;2022-08-01T04:07:38;18.40;99.90
23719;DHT22;43322;52.230;5.702;2022-08-01T04:10:08;18.40;99.90
23719;DHT22;43322;52.230;5.702;2022-08-01T04:12:36;18.40;99.90
23719;DHT22;43322;52.230;5.702;2022-08-01T04:15:04;18.40;99.90
23719;DHT22;43322;52.230;5.702;2022-08-01T04:17:31;18.40;99.90
23719;DHT22;43322;52.230;5.702;2022-08-01T04:19:58;18.90;99.90
23719;DHT22;43322;52.230;5.702;2022-08-01T04:22:26;18.30;99.90
23719;DHT22;43322;52.230;5.702;2022-08-01T04:24:55;18.30;99.90
23719;DHT22;43322;52.230;5.702;2022-08-01T04:27:27;18.50;99.90
23719;DHT22;43322;52.230;5.702;2022-08-01T04:29:58;18.20;99.90
23719;DHT22;43322;52.230;5.702;2022-08-01T04:32:29;18.20;99.90
23719;DHT22;43322;52.230;5.702;2022-08-01T04:34:58;18.50;99.90
23719;DHT22;43322;52.230;5.702;2022-08-01T04:37:27;18.20;99.90
23719;DHT22;43322;52.230;5.702;2022-08-01T04:39:56;18.10;99.90
23719;DHT22;43322;52.230;5.702;2022-08-01T04:42:24;18.10;99.90
23719;DHT22;43322;52.230;5.702;2022-08-01T04:44:53;18.00;99.90
23719;DHT22;43322;52.230;5.702;2022-08-01T04:47:22;18.00;99.90
23719;DHT22;43322;52.230;5.702;2022-08-01T04:49:49;18.00;99.90
23719;DHT22;43322;52.230;5.702;2022-08-01T04:52:16;18.00;99.90
23719;DHT22;43322;52.230;5.702;2022-08-01T04:54:43;18.00;99.90
23719;DHT22;43322;52.230;5.702;2022-08-01T04:57:12;18.00;99.90
23719;DHT22;43322;52.230;5.702;2022-08-01T04:59:42;18.00;99.90
23719;DHT22;43322;52.230;5.702;2022-08-01T05:02:12;18.70;99.90
23719;DHT22;43322;52.230;5.702;2022-08-01T05:04:41;18.00;99.90
23719;DHT22;43322;52.230;5.702;2022-08-01T05:07:08;18.00;99.90
23719;DHT22;43322;52.230;5.702;2022-08-01T05:09:36;18.10;99.90
23719;DHT22;43322;52.230;5.702;2022-08-01T05:12:05;18.10;99.90
23719;DHT22;43322;52.230;5.702;2022-08-01T05:14:32;18.10;99.90
23719;DHT22;43322;52.230;5.702;2022-08-01T05:16:59;18.10;99.90
23719;DHT22;43322;52.230;5.702;2022-08-01T05:19:28;18.40;99.90
23719;DHT22;43322;52.230;5.702;2022-08-01T05:21:57;18.20;99.90
23719;DHT22;43322;52.230;5.702;2022-08-01T05:24:24;18.30;99.90
23719;DHT22;43322;52.230;5.702;2022-08-01T05:26:50;18.30;99.90
23719;DHT22;43322;52.230;5.702;2022-08-01T05:29:17;18.40;99.90
23719;DHT22;43322;52.230;5.702;2022-08-01T05:31:44;18.50;99.90
23719;DHT22;43322;52.230;5.702;2022-08-01T05:34:10;18.60;99.90
23719;DHT22;43322;52.230;5.702;2022-08-01T05:36:37;18.70;99.90
23719;DHT22;43322;52.230;5.702;2022-08-01T05:39:06;18.60;99.90
23719;DHT22;43322;52.230;5.702;2022-08-01T05:41:33;19.00;99.90
23719;DHT22;43322;52.230;5.702;2022-08-01T05:43:59;18.60;99.90
23719;DHT22;43322;52.230;5.702;2022-08-01T05:46:26;18.60;99.90
23719;DHT22;43322;52.230;5.702;2022-08-01T05:48:53;18.70;99.90
23719;DHT22;43322;52.230;5.702;2022-08-01T05:51:20;18.70;99.90
23719;DHT22;43322;52.230;5.702;2022-08-01T05:53:47;18.60;99.90
23719;DHT22;43322;52.230;5.702;2022-08-01T05:56:15;18.70;99.90
23719;DHT22;43322;52.230;5.702;2022-08-01T05:58:42;19.10;99.90
23719;DHT22;43322;52.230;5.702;2022-08-01T06:01:09;18.70;99.90
23719;DHT22;43322;52.230;5.702;2022-08-01T06:03:36;18.70;99.90
23719;DHT22;43322;52.230;5.702;2022-08-01T06:06:03;18.80;99.90
23719;DHT22;43322;52.230;5.702;2022-08-01T06:08:30;18.80;99.90
23719;DHT22;43322;52.230;5.702;2022-08-01T06:10:57;18.90;99.90
23719;DHT22;43322;52.230;5.702;2022-08-01T06:13:26;18.90;99.90
23719;DHT22;43322;52.230;5.702;2022-08-01T06:15:54;19.00;99.90
23719;DHT22;43322;52.230;5.702;2022-08-01T06:18:20;18.90;99.90
23719;DHT22;43322;52.230;5.702;2022-08-01T06:20:48;18.80;99.90
23719;DHT22;43322;52.230;5.702;2022-08-01T06:23:15;19.00;99.90
23719;DHT22;43322;52.230;5.702;2022-08-01T06:25:42;19.00;99.90
23719;DHT22;43322;52.230;5.702;2022-08-01T06:28:09;19.00;99.90
23719;DHT22;43322;52.230;5.702;2022-08-01T06:30:37;19.10;99.90
23719;DHT22;43322;52.230;5.702;2022-08-01T06:33:04;19.10;99.90
23719;DHT22;43322;52.230;5.702;2022-08-01T06:35:32;19.20;99.90
23719;DHT22;43322;52.230;5.702;2022-08-01T06:37:58;19.30;99.90
23719;DHT22;43322;52.230;5.702;2022-08-01T06:40:26;19.40;99.90
23719;DHT22;43322;52.230;5.702;2022-08-01T06:42:52;19.50;99.90
23719;DHT22;43322;52.230;5.702;2022-08-01T06:45:20;19.60;99.90
23719;DHT22;43322;52.230;5.702;2022-08-01T06:47:49;19.50;99.90
23719;DHT22;43322;52.230;5.702;2022-08-01T06:50:16;19.20;99.90
23719;DHT22;43322;52.230;5.702;2022-08-01T06:52:43;19.40;99.90
23719;DHT22;43322;52.230;5.702;2022-08-01T06:55:10;19.20;99.90
23719;DHT22;43322;52.230;5.702;2022-08-01T06:57:45;19.00;99.90
23719;DHT22;43322;52.230;5.702;2022-08-01T07:00:13;19.10;99.90
23719;DHT22;43322;52.230;5.702;2022-08-01T07:02:41;19.00;99.90
23719;DHT22;43322;52.230;5.702;2022-08-01T07:05:10;19.00;99.90
23719;DHT22;43322;52.230;5.702;2022-08-01T07:07:37;19.00;99.90
23719;DHT22;43322;52.230;5.702;2022-08-01T07:10:05;19.00;99.90
23719;DHT22;43322;52.230;5.702;2022-08-01T07:12:31;19.10;99.90
23719;DHT22;43322;52.230;5.702;2022-08-01T07:14:59;19.10;99.90
23719;DHT22;43322;52.230;5.702;2022-08-01T07:17:27;19.20;99.90
23719;DHT22;43322;52.230;5.702;2022-08-01T07:19:53;19.20;99.90
23719;DHT22;43322;52.230;5.702;2022-08-01T07:22:22;19.20;99.90
23719;DHT22;43322;52.230;5.702;2022-08-01T07:24:49;19.30;99.90
23719;DHT22;43322;52.230;5.702;2022-08-01T07:27:16;19.20;99.90
23719;DHT22;43322;52.230;5.702;2022-08-01T07:29:43;19.30;99.90
23719;DHT22;43322;52.230;5.702;2022-08-01T07:32:10;19.30;99.90
23719;DHT22;43322;52.230;5.702;2022-08-01T07:34:37;19.30;99.90
23719;DHT22;43322;52.230;5.702;2022-08-01T07:37:04;19.40;99.90
23719;DHT22;43322;52.230;5.702;2022-08-01T07:39:33;19.40;99.90
23719;DHT22;43322;52.230;5.702;2022-08-01T07:41:59;19.40;99.90
23719;DHT22;43322;52.230;5.702;2022-08-01T07:44:26;19.40;99.90
23719;DHT22;43322;52.230;5.702;2022-08-01T07:46:53;19.40;99.90
23719;DHT22;43322;52.230;5.702;2022-08-01T07:49:20;19.30;99.90
23719;DHT22;43322;52.230;5.702;2022-08-01T07:51:47;19.00;99.90
23719;DHT22;43322;52.230;5.702;2022-08-01T07:54:14;19.00;99.90
23719;DHT22;43322;52.230;5.702;2022-08-01T07:56:42;18.80;99.90
23719;DHT22;43322;52.230;5.702;2022-08-01T07:59:09;18.70;99.90
23719;DHT22;43322;52.230;5.702;2022-08-01T08:01:36;18.60;99.90
23719;DHT22;43322;52.230;5.702;2022-08-01T08:04:03;18.70;99.90
23719;DHT22;43322;52.230;5.702;2022-08-01T08:06:30;18.80;99.90
23719;DHT22;43322;52.230;5.702;2022-08-01T08:08:57;19.00;99.90
23719;DHT22;43322;52.230;5.702;2022-08-01T08:11:24;19.50;99.90
23719;DHT22;43322;52.230;5.702;2022-08-01T08:13:52;18.90;99.90
23719;DHT22;43322;52.230;5.702;2022-08-01T08:16:19;18.90;99.90
23719;DHT22;43322;52.230;5.702;2022-08-01T08:18:46;19.10;99.90
23719;DHT22;43322;52.230;5.702;2022-08-01T08:21:13;18.90;99.90
23719;DHT22;43322;52.230;5.702;2022-08-01T08:23:40;19.00;99.90
23719;DHT22;43322;52.230;5.702;2022-08-01T08:26:25;19.10;99.90
23719;DHT22;43322;52.230;5.702;2022-08-01T08:28:55;19.30;99.90
23719;DHT22;43322;52.230;5.702;2022-08-01T08:31:22;19.60;99.90
23719;DHT22;43322;52.230;5.702;2022-08-01T08:33:50;19.80;99.90
23719;DHT22;43322;52.230;5.702;2022-08-01T08:36:18;20.00;99.90
23719;DHT22;43322;52.230;5.702;2022-08-01T08:38:46;20.20;99.90
23719;DHT22;43322;52.230;5.702;2022-08-01T08:41:13;20.10;99.90
23719;DHT22;43322;52.230;5.702;2022-08-01T08:43:40;20.10;99.90
23719;DHT22;43322;52.230;5.702;2022-08-01T08:46:09;20.00;99.90
23719;DHT22;43322;52.230;5.702;2022-08-01T08:48:40;20.30;99.90
23719;DHT22;43322;52.230;5.702;2022-08-01T08:51:07;20.20;99.90
23719;DHT22;43322;52.230;5.702;2022-08-01T08:53:37;20.20;99.90
23719;DHT22;43322;52.230;5.702;2022-08-01T08:56:06;20.50;99.90
23719;DHT22;43322;52.230;5.702;2022-08-01T08:58:35;20.80;99.90
23719;DHT22;43322;52.230;5.702;2022-08-01T09:01:05;21.50;99.90
23719;DHT22;43322;52.230;5.702;2022-08-01T09:03:33;21.60;99.90
23719;DHT22;43322;52.230;5.702;2022-08-01T09:06:00;20.80;99.90
23719;DHT22;43322;52.230;5.702;2022-08-01T09:08:27;20.80;99.90
23719;DHT22;43322;52.230;5.702;2022-08-01T09:10:54;20.80;99.90
23719;DHT22;43322;52.230;5.702;2022-08-01T09:13:21;20.80;99.90
23719;DHT22;43322;52.230;5.702;2022-08-01T09:15:49;20.80;99.90
23719;DHT22;43322;52.230;5.702;2022-08-01T09:18:30;20.90;99.90
23719;DHT22;43322;52.230;5.702;2022-08-01T09:21:13;21.10;99.90
23719;DHT22;43322;52.230;5.702;2022-08-01T09:23:44;21.00;99.90
23719;DHT22;43322;52.230;5.702;2022-08-01T09:26:12;20.90;99.90
23719;DHT22;43322;52.230;5.702;2022-08-01T09:28:41;20.90;99.90
23719;DHT22;43322;52.230;5.702;2022-08-01T09:31:10;21.00;99.90
23719;DHT22;43322;52.230;5.702;2022-08-01T09:33:51;20.70;99.90
23719;DHT22;43322;52.230;5.702;2022-08-01T09:36:21;20.80;99.90
23719;DHT22;43322;52.230;5.702;2022-08-01T09:38:49;20.90;99.90
23719;DHT22;43322;52.230;5.702;2022-08-01T09:41:16;20.90;99.90
23719;DHT22;43322;52.230;5.702;2022-08-01T09:43:49;20.80;99.90
23719;DHT22;43322;52.230;5.702;2022-08-01T09:46:17;20.80;99.90
23719;DHT22;43322;52.230;5.702;2022-08-01T09:48:56;20.90;99.90
23719;DHT22;43322;52.230;5.702;2022-08-01T09:51:30;21.10;99.90
23719;DHT22;43322;52.230;5.702;2022-08-01T09:53:58;21.30;99.90
23719;DHT22;43322;52.230;5.702;2022-08-01T09:56:25;21.30;99.90
23719;DHT22;43322;52.230;5.702;2022-08-01T09:58:54;21.00;99.90
23719;DHT22;43322;52.230;5.702;2022-08-01T10:01:21;20.90;99.90
23719;DHT22;43322;52.230;5.702;2022-08-01T10:04:04;20.70;99.90
23719;DHT22;43322;52.230;5.702;2022-08-01T10:06:33;20.60;99.90
23719;DHT22;43322;52.230;5.702;2022-08-01T10:09:01;20.60;99.90
23719;DHT22;43322;52.230;5.702;2022-08-01T10:11:28;20.70;99.90
23719;DHT22;43322;52.230;5.702;2022-08-01T10:13:58;21.00;99.90
23719;DHT22;43322;52.230;5.702;2022-08-01T10:16:26;21.50;99.90
23719;DHT22;43322;52.230;5.702;2022-08-01T10:18:54;22.00;99.90
23719;DHT22;43322;52.230;5.702;2022-08-01T10:21:21;21.90;99.90
23719;DHT22;43322;52.230;5.702;2022-08-01T10:23:50;21.90;99.90
23719;DHT22;43322;52.230;5.702;2022-08-01T10:26:18;21.90;99.90
23719;DHT22;43322;52.230;5.702;2022-08-01T10:28:47;21.90;99.90
23719;DHT22;43322;52.230;5.702;2022-08-01T10:31:16;21.90;99.90
23719;DHT22;43322;52.230;5.702;2022-08-01T10:33:44;22.00;99.90
23719;DHT22;43322;52.230;5.702;2022-08-01T10:36:12;22.00;99.90
23719;DHT22;43322;52.230;5.702;2022-08-01T10:38:40;22.50;99.90
23719;DHT22;43322;52.230;5.702;2022-08-01T10:41:09;23.10;99.90
23719;DHT22;43322;52.230;5.702;2022-08-01T10:43:38;23.60;99.90
23719;DHT22;43322;52.230;5.702;2022-08-01T10:46:05;23.50;99.90
23719;DHT22;43322;52.230;5.702;2022-08-01T10:48:40;23.30;99.90
23719;DHT22;43322;52.230;5.702;2022-08-01T10:51:08;23.30;99.90
23719;DHT22;43322;52.230;5.702;2022-08-01T10:53:35;23.30;99.90
23719;DHT22;43322;52.230;5.702;2022-08-01T10:56:03;23.20;99.90
23719;DHT22;43322;52.230;5.702;2022-08-01T10:58:34;23.10;99.90
23719;DHT22;43322;52.230;5.702;2022-08-01T11:01:20;22.90;99.90
23719;DHT22;43322;52.230;5.702;2022-08-01T11:04:11;22.70;99.90
23719;DHT22;43322;52.230;5.702;2022-08-01T11:06:43;22.80;99.90
23719;DHT22;43322;52.230;5.702;2022-08-01T11:09:23;23.10;99.90
23719;DHT22;43322;52.230;5.702;2022-08-01T11:12:02;23.20;99.90
23719;DHT22;43322;52.230;5.702;2022-08-01T11:14:31;23.20;99.90
23719;DHT22;43322;52.230;5.702;2022-08-01T11:17:32;23.20;99.90
23719;DHT22;43322;52.230;5.702;2022-08-01T11:20:09;23.20;99.90
23719;DHT22;43322;52.230;5.702;2022-08-01T11:26:14;23.10;99.90
23719;DHT22;43322;52.230;5.702;2022-08-01T11:28:46;23.00;99.90
23719;DHT22;43322;52.230;5.702;2022-08-01T11:31:35;22.80;99.90
23719;DHT22;43322;52.230;5.702;2022-08-01T11:34:06;22.80;99.90
23719;DHT22;43322;52.230;5.702;2022-08-01T11:36:33;22.70;99.90
23719;DHT22;43322;52.230;5.702;2022-08-01T11:39:16;23.00;99.90
23719;DHT22;43322;52.230;5.702;2022-08-01T11:41:45;23.30;99.90
23719;DHT22;43322;52.230;5.702;2022-08-01T11:44:18;23.40;99.90
23719;DHT22;43322;52.230;5.702;2022-08-01T11:46:48;23.70;99.90
23719;DHT22;43322;52.230;5.702;2022-08-01T11:49:30;23.50;99.90
23719;DHT22;43322;52.230;5.702;2022-08-01T11:52:03;23.40;99.90
23719;DHT22;43322;52.230;5.702;2022-08-01T11:54:33;23.30;99.90
23719;DHT22;43322;52.230;5.702;2022-08-01T11:57:02;23.30;99.90
23719;DHT22;43322;52.230;5.702;2022-08-01T11:59:35;23.50;99.90
23719;DHT22;43322;52.230;5.702;2022-08-01T12:02:05;23.90;99.90
23719;DHT22;43322;52.230;5.702;2022-08-01T12:04:45;24.20;99.90
23719;DHT22;43322;52.230;5.702;2022-08-01T12:07:13;24.70;99.90
23719;DHT22;43322;52.230;5.702;2022-08-01T12:09:40;25.20;99.90
23719;DHT22;43322;52.230;5.702;2022-08-01T12:12:07;25.40;99.90
23719;DHT22;43322;52.230;5.702;2022-08-01T12:14:35;25.80;99.90
23719;DHT22;43322;52.230;5.702;2022-08-01T12:17:01;26.00;99.90
23719;DHT22;43322;52.230;5.702;2022-08-01T12:19:30;26.50;99.90
23719;DHT22;43322;52.230;5.702;2022-08-01T12:22:11;26.90;99.90
23719;DHT22;43322;52.230;5.702;2022-08-01T12:24:41;27.50;99.90
23719;DHT22;43322;52.230;5.702;2022-08-01T12:27:09;26.80;99.90
23719;DHT22;43322;52.230;5.702;2022-08-01T12:29:39;25.70;99.90
23719;DHT22;43322;52.230;5.702;2022-08-01T12:32:24;25.00;99.90
23719;DHT22;43322;52.230;5.702;2022-08-01T12:34:54;25.40;99.90
23719;DHT22;43322;52.230;5.702;2022-08-01T12:37:23;26.40;99.90
23719;DHT22;43322;52.230;5.702;2022-08-01T12:39:50;27.10;99.90
23719;DHT22;43322;52.230;5.702;2022-08-01T12:42:17;27.50;99.90
23719;DHT22;43322;52.230;5.702;2022-08-01T12:44:45;27.50;99.90
23719;DHT22;43322;52.230;5.702;2022-08-01T12:47:14;26.60;99.90
23719;DHT22;43322;52.230;5.702;2022-08-01T12:49:43;26.60;99.90
23719;DHT22;43322;52.230;5.702;2022-08-01T12:52:12;27.10;99.90
23719;DHT22;43322;52.230;5.702;2022-08-01T12:55:02;27.70;99.90
23719;DHT22;43322;52.230;5.702;2022-08-01T12:57:30;27.80;99.90
23719;DHT22;43322;52.230;5.702;2022-08-01T13:00:13;28.30;99.90
23719;DHT22;43322;52.230;5.702;2022-08-01T13:02:41;28.80;99.90
23719;DHT22;43322;52.230;5.702;2022-08-01T13:05:09;29.00;99.90
23719;DHT22;43322;52.230;5.702;2022-08-01T13:07:47;28.00;99.90
23719;DHT22;43322;52.230;5.702;2022-08-01T13:10:23;28.30;99.90
23719;DHT22;43322;52.230;5.702;2022-08-01T13:12:53;28.00;99.90
23719;DHT22;43322;52.230;5.702;2022-08-01T13:15:22;28.40;99.90
23719;DHT22;43322;52.230;5.702;2022-08-01T13:17:50;29.30;99.90
23719;DHT22;43322;52.230;5.702;2022-08-01T13:20:29;29.40;99.90
23719;DHT22;43322;52.230;5.702;2022-08-01T13:23:12;29.40;99.90
23719;DHT22;43322;52.230;5.702;2022-08-01T13:25:51;28.50;99.90
23719;DHT22;43322;52.230;5.702;2022-08-01T13:28:20;28.80;99.90
23719;DHT22;43322;52.230;5.702;2022-08-01T13:30:54;29.10;99.90
23719;DHT22;43322;52.230;5.702;2022-08-01T13:33:22;28.30;99.90
23719;DHT22;43322;52.230;5.702;2022-08-01T13:35:50;28.00;99.90
23719;DHT22;43322;52.230;5.702;2022-08-01T13:38:18;28.20;99.90
23719;DHT22;43322;52.230;5.702;2022-08-01T13:40:45;28.80;99.90
23719;DHT22;43322;52.230;5.702;2022-08-01T13:43:12;28.00;99.90
23719;DHT22;43322;52.230;5.702;2022-08-01T13:45:40;28.10;99.90
23719;DHT22;43322;52.230;5.702;2022-08-01T13:48:07;28.30;99.90
23719;DHT22;43322;52.230;5.702;2022-08-01T13:50:34;28.30;99.90
23719;DHT22;43322;52.230;5.702;2022-08-01T13:53:01;27.80;99.90
23719;DHT22;43322;52.230;5.702;2022-08-01T13:55:29;27.70;99.90
23719;DHT22;43322;52.230;5.702;2022-08-01T13:57:56;27.60;99.90
23719;DHT22;43322;52.230;5.702;2022-08-01T14:00:23;27.10;99.90
23719;DHT22;43322;52.230;5.702;2022-08-01T14:02:50;27.30;99.90
23719;DHT22;43322;52.230;5.702;2022-08-01T14:05:17;27.40;99.90
23719;DHT22;43322;52.230;5.702;2022-08-01T14:07:43;27.10;99.90
23719;DHT22;43322;52.230;5.702;2022-08-01T14:10:11;26.90;99.90
23719;DHT22;43322;52.230;5.702;2022-08-01T14:12:39;26.40;99.90
23719;DHT22;43322;52.230;5.702;2022-08-01T14:15:07;26.20;99.90
23719;DHT22;43322;52.230;5.702;2022-08-01T14:17:34;26.50;99.90
23719;DHT22;43322;52.230;5.702;2022-08-01T14:20:00;26.30;99.90
23719;DHT22;43322;52.230;5.702;2022-08-01T14:22:28;26.20;99.90
23719;DHT22;43322;52.230;5.702;2022-08-01T14:24:54;26.10;99.90
23719;DHT22;43322;52.230;5.702;2022-08-01T14:27:21;26.20;99.90
23719;DHT22;43322;52.230;5.702;2022-08-01T14:29:49;26.20;99.90
23719;DHT22;43322;52.230;5.702;2022-08-01T14:32:16;26.40;99.90
23719;DHT22;43322;52.230;5.702;2022-08-01T14:34:43;26.20;99.90
23719;DHT22;43322;52.230;5.702;2022-08-01T14:37:11;25.70;99.90
23719;DHT22;43322;52.230;5.702;2022-08-01T14:39:37;25.90;99.90
23719;DHT22;43322;52.230;5.702;2022-08-01T14:42:05;25.90;99.90
23719;DHT22;43322;52.230;5.702;2022-08-01T14:44:31;25.70;99.90
23719;DHT22;43322;52.230;5.702;2022-08-01T14:47:00;25.80;99.90
23719;DHT22;43322;52.230;5.702;2022-08-01T14:49:27;26.10;99.90
23719;DHT22;43322;52.230;5.702;2022-08-01T14:51:54;26.30;99.90
23719;DHT22;43322;52.230;5.702;2022-08-01T14:54:20;27.20;99.90
23719;DHT22;43322;52.230;5.702;2022-08-01T14:56:47;26.80;99.90
23719;DHT22;43322;52.230;5.702;2022-08-01T14:59:14;26.40;99.90
23719;DHT22;43322;52.230;5.702;2022-08-01T15:01:41;26.20;99.90
23719;DHT22;43322;52.230;5.702;2022-08-01T15:04:09;25.80;99.90
23719;DHT22;43322;52.230;5.702;2022-08-01T15:06:36;25.80;99.90
23719;DHT22;43322;52.230;5.702;2022-08-01T15:09:03;26.30;99.90
23719;DHT22;43322;52.230;5.702;2022-08-01T15:11:30;26.40;99.90
23719;DHT22;43322;52.230;5.702;2022-08-01T15:13:57;26.90;99.90
23719;DHT22;43322;52.230;5.702;2022-08-01T15:16:42;26.90;99.90
23719;DHT22;43322;52.230;5.702;2022-08-01T15:19:11;26.30;99.90
23719;DHT22;43322;52.230;5.702;2022-08-01T15:21:38;26.50;99.90
23719;DHT22;43322;52.230;5.702;2022-08-01T15:24:06;26.50;99.90
23719;DHT22;43322;52.230;5.702;2022-08-01T15:26:47;26.70;99.90
23719;DHT22;43322;52.230;5.702;2022-08-01T15:29:14;26.70;99.90
23719;DHT22;43322;52.230;5.702;2022-08-01T15:31:41;26.80;99.90
23719;DHT22;43322;52.230;5.702;2022-08-01T15:34:08;26.90;99.90
23719;DHT22;43322;52.230;5.702;2022-08-01T15:36:36;26.70;99.90
23719;DHT22;43322;52.230;5.702;2022-08-01T15:39:03;26.80;99.90
23719;DHT22;43322;52.230;5.702;2022-08-01T15:41:30;26.80;99.90
23719;DHT22;43322;52.230;5.702;2022-08-01T15:43:57;26.40;99.90
23719;DHT22;43322;52.230;5.702;2022-08-01T15:46:24;26.50;99.90